Nickerson, Minnesota
Current Conditions -  °F | °C
As of 2:36 AM on Saturday 20 Dec 2014 (Local Time) from KCOQ Reporting Station
Haze Haze  
Wind Chill: 25°   Ceiling: 800
Heat Index: 25°   Visibility: 5mi
Dew Point: 23°   Wind: 0mph
Humidity: 93%   Direction: NA
Pressure: 30.12"   Gusts: NA
Location:  46.5695°N, 92.3576°W
Report Text: KCOQ 200836Z AUTO 00000KT 5SM BR OVC008 M04/M05 A3012 RMK AO2
Loading
Personal Weather Stations






























Interactive Weather Map New forecast layout! Learn more

10-Day Weather Forecast

Advertisements
Track Severe Weather on mobile